createdAt,value
2018-03-23T00:01:08.395Z,25.07
2018-03-23T00:03:36.755Z,24.23
2018-03-23T00:06:05.135Z,26.10
2018-03-23T00:08:33.500Z,23.57
2018-03-23T00:11:01.846Z,21.50
2018-03-23T00:13:30.219Z,27.30
2018-03-23T00:15:58.551Z,20.00
2018-03-23T00:18:26.928Z,22.10
2018-03-23T00:20:55.288Z,19.87
2018-03-23T00:23:23.643Z,17.53
2018-03-23T00:25:52.762Z,15.90
2018-03-23T00:28:21.115Z,22.30
2018-03-23T00:30:50.248Z,20.40
2018-03-23T00:33:18.620Z,17.60
2018-03-23T00:35:46.986Z,17.50
2018-03-23T00:38:15.150Z,19.73
2018-03-23T00:40:44.265Z,16.97
2018-03-23T00:43:12.652Z,19.40
2018-03-23T00:45:41.191Z,16.83
2018-03-23T00:48:10.327Z,17.47
2018-03-23T00:50:38.714Z,21.20
2018-03-23T00:53:07.074Z,19.20
2018-03-23T00:55:35.414Z,13.30
2018-03-23T00:58:03.863Z,20.87
2018-03-23T01:00:32.222Z,12.33
2018-03-23T01:03:00.569Z,16.53
2018-03-23T01:05:28.931Z,16.40
2018-03-23T01:07:57.750Z,17.10
2018-03-23T01:10:26.103Z,14.77
2018-03-23T01:12:55.226Z,15.57
2018-03-23T01:15:23.635Z,20.50
2018-03-23T01:17:52.049Z,19.83
2018-03-23T01:20:20.511Z,19.00
2018-03-23T01:22:48.917Z,16.27
2018-03-23T01:25:17.401Z,18.30
2018-03-23T01:27:46.523Z,20.43
2018-03-23T01:30:14.881Z,23.60
2018-03-23T01:32:43.253Z,23.70
2018-03-23T01:35:11.457Z,23.60
2018-03-23T01:37:39.938Z,22.23
2018-03-23T01:40:08.082Z,28.37
2018-03-23T01:42:37.227Z,24.63
2018-03-23T01:45:05.245Z,30.87
2018-03-23T01:47:35.092Z,25.50
2018-03-23T01:50:02.874Z,33.43
2018-03-23T01:52:31.259Z,31.43
2018-03-23T01:54:59.601Z,38.13
2018-03-23T01:57:28.016Z,26.90
2018-03-23T01:59:56.373Z,23.13
2018-03-23T02:02:24.725Z,36.50
2018-03-23T02:04:53.869Z,24.37
2018-03-23T02:07:22.319Z,31.53
2018-03-23T02:09:50.710Z,31.43
2018-03-23T02:12:19.411Z,25.20
2018-03-23T02:14:47.776Z,29.03
2018-03-23T02:17:16.120Z,25.13
2018-03-23T02:19:44.492Z,23.43
2018-03-23T02:22:12.828Z,30.83
2018-03-23T02:24:41.255Z,21.07
2018-03-23T02:27:09.603Z,21.67
2018-03-23T02:29:38.554Z,18.87
2018-03-23T02:32:06.905Z,21.73
2018-03-23T02:34:35.293Z,23.23
2018-03-23T02:37:04.592Z,21.37
2018-03-23T02:39:32.953Z,27.60
2018-03-23T02:42:02.252Z,31.63
2018-03-23T02:44:31.597Z,18.60
2018-03-23T02:46:59.982Z,33.80
2018-03-23T02:49:28.490Z,21.63
2018-03-23T02:51:57.733Z,20.47
2018-03-23T02:54:26.071Z,23.77
2018-03-23T02:56:55.190Z,27.37
2018-03-23T02:59:23.582Z,27.70
2018-03-23T03:01:51.999Z,22.13
2018-03-23T03:04:20.450Z,21.63
2018-03-23T03:06:49.172Z,23.57
2018-03-23T03:09:17.511Z,24.90
2018-03-23T03:11:45.873Z,23.03
2018-03-23T03:14:14.270Z,23.43
2018-03-23T03:16:42.742Z,24.03
2018-03-23T03:19:11.083Z,21.33
2018-03-23T03:21:40.229Z,24.93
2018-03-23T03:24:08.571Z,22.10
2018-03-23T03:26:36.937Z,24.47
2018-03-23T03:29:06.042Z,22.97
2018-03-23T03:31:34.418Z,28.50
2018-03-23T03:34:03.568Z,29.93
2018-03-23T03:39:22.519Z,26.93
2018-03-23T03:41:50.867Z,32.10
2018-03-23T03:44:19.995Z,32.20
2018-03-23T03:46:48.339Z,31.90
2018-03-23T03:49:17.462Z,29.20
2018-03-23T03:51:45.804Z,31.40
2018-03-23T03:54:14.951Z,28.93
2018-03-23T03:56:43.283Z,34.57
2018-03-23T03:59:12.430Z,24.70
2018-03-23T04:01:40.801Z,21.43
2018-03-23T04:04:09.179Z,28.77
2018-03-23T04:06:37.564Z,29.33
2018-03-23T04:09:05.248Z,30.47
2018-03-23T04:11:33.611Z,33.30
2018-03-23T04:14:01.958Z,25.83
2018-03-23T04:16:30.308Z,34.60
2018-03-23T04:18:59.423Z,34.33
2018-03-23T04:21:27.788Z,26.30
2018-03-23T04:23:56.904Z,28.73
2018-03-23T04:26:25.248Z,31.70
2018-03-23T04:28:54.380Z,21.93
2018-03-23T04:31:22.727Z,35.67
2018-03-23T04:33:51.851Z,30.30
2018-03-23T04:36:20.207Z,26.63
2018-03-23T04:38:49.327Z,27.40
2018-03-23T04:41:17.883Z,31.30
2018-03-23T04:43:47.002Z,28.47
2018-03-23T04:46:15.360Z,33.70
2018-03-23T04:48:43.704Z,25.77
2018-03-23T04:51:12.075Z,30.17
2018-03-23T04:53:40.429Z,35.27
2018-03-23T04:56:08.778Z,25.77
2018-03-23T04:58:37.130Z,20.13
2018-03-23T05:01:06.264Z,27.70
2018-03-23T05:03:34.607Z,22.70
2018-03-23T05:06:03.737Z,38.23
2018-03-23T05:08:32.100Z,28.57
2018-03-23T05:11:00.450Z,25.23
2018-03-23T05:13:29.570Z,30.07
2018-03-23T05:15:57.912Z,30.67
2018-03-23T05:18:26.275Z,19.60
2018-03-23T05:20:54.282Z,31.37
2018-03-23T05:23:23.584Z,22.33
2018-03-23T05:25:52.707Z,25.80
2018-03-23T05:28:21.074Z,26.10
2018-03-23T05:30:49.427Z,31.10
2018-03-23T05:33:18.550Z,23.67
2018-03-23T05:35:46.920Z,24.17
2018-03-23T05:38:15.286Z,26.17
2018-03-23T05:40:44.448Z,26.97
2018-03-23T05:43:12.973Z,22.47
2018-03-23T05:45:41.328Z,27.10
2018-03-23T05:48:10.436Z,19.73
2018-03-23T05:50:39.640Z,25.97
2018-03-23T05:53:08.023Z,26.53
2018-03-23T05:55:36.395Z,26.83
2018-03-23T05:58:06.247Z,20.53
2018-03-23T06:00:34.633Z,20.23
2018-03-23T06:03:03.075Z,22.50
2018-03-23T06:05:31.439Z,24.43
2018-03-23T06:08:00.562Z,24.73
2018-03-23T06:10:28.912Z,19.47
2018-03-23T06:12:58.080Z,24.00
2018-03-23T06:15:26.428Z,25.33
2018-03-23T06:17:54.791Z,22.23
2018-03-23T06:20:22.942Z,28.70
2018-03-23T06:22:51.145Z,20.60
2018-03-23T06:25:20.423Z,23.33
2018-03-23T06:27:48.777Z,21.23
2018-03-23T06:30:17.904Z,22.47
2018-03-23T06:32:46.348Z,23.00
2018-03-23T06:35:14.701Z,18.40
2018-03-23T06:37:43.076Z,19.90
2018-03-23T06:40:11.435Z,16.70
2018-03-23T06:42:39.864Z,20.20
2018-03-23T06:45:08.274Z,18.33
2018-03-23T06:47:36.615Z,21.50
2018-03-23T06:50:05.744Z,18.50
2018-03-23T06:52:34.115Z,26.97
2018-03-23T06:55:02.447Z,21.60
2018-03-23T06:57:30.807Z,20.90
2018-03-23T06:59:59.152Z,15.90
2018-03-23T07:02:27.517Z,17.00
2018-03-23T07:04:56.633Z,16.30
2018-03-23T07:07:25.008Z,17.67
2018-03-23T07:09:53.347Z,19.03
2018-03-23T07:12:21.691Z,16.40
2018-03-23T07:14:50.067Z,8.73
2018-03-23T07:17:18.420Z,17.33
2018-03-23T07:19:46.803Z,22.47
2018-03-23T07:22:15.432Z,16.30
2018-03-23T07:24:44.311Z,17.83
2018-03-23T07:27:12.668Z,15.27
2018-03-23T07:29:40.868Z,15.17
2018-03-23T07:32:09.212Z,17.37
2018-03-23T07:34:37.593Z,17.23
2018-03-23T07:37:05.608Z,17.10
2018-03-23T07:39:33.943Z,14.33
2018-03-23T07:42:02.433Z,16.50
2018-03-23T07:44:31.715Z,16.43
2018-03-23T07:47:00.145Z,13.80
2018-03-23T07:49:29.260Z,12.10
2018-03-23T07:51:58.065Z,14.57
2018-03-23T07:54:26.405Z,21.57
2018-03-23T07:56:54.749Z,17.73
2018-03-23T07:59:23.112Z,19.37
2018-03-23T08:01:51.493Z,19.20
2018-03-23T08:04:19.890Z,14.17
2018-03-23T08:06:48.290Z,14.63
2018-03-23T08:09:16.790Z,11.30
2018-03-23T08:11:45.910Z,14.97
2018-03-23T08:14:14.268Z,12.33
2018-03-23T08:16:43.396Z,15.60
2018-03-23T08:19:11.790Z,13.57
2018-03-23T08:21:40.135Z,10.33
2018-03-23T08:24:08.528Z,17.23
2018-03-23T08:26:36.883Z,15.03
2018-03-23T08:29:05.983Z,13.03
2018-03-23T08:31:35.096Z,8.07
2018-03-23T08:34:03.461Z,17.47
2018-03-23T08:36:32.072Z,16.37
2018-03-23T08:39:00.218Z,16.80
2018-03-23T08:41:28.839Z,16.00
2018-03-23T08:43:57.173Z,14.20
2018-03-23T08:46:25.593Z,16.60
2018-03-23T08:48:53.958Z,13.33
2018-03-23T08:51:22.302Z,18.30
2018-03-23T08:53:50.650Z,10.77
2018-03-23T08:56:18.991Z,15.83
2018-03-23T08:58:48.108Z,15.10
2018-03-23T09:01:16.460Z,20.83
2018-03-23T09:03:44.809Z,15.00
2018-03-23T09:06:13.160Z,14.83
2018-03-23T09:08:41.493Z,15.23
2018-03-23T09:11:09.848Z,14.83
2018-03-23T09:13:38.023Z,10.83
2018-03-23T09:16:06.400Z,19.40
2018-03-23T09:18:34.867Z,17.90
2018-03-23T09:21:03.992Z,15.57
2018-03-23T09:23:32.331Z,17.30
2018-03-23T09:26:01.447Z,14.73
2018-03-23T09:28:29.791Z,18.73
2018-03-23T09:30:58.139Z,13.90
2018-03-23T09:33:26.473Z,13.50
2018-03-23T09:35:54.941Z,16.50
2018-03-23T09:38:24.075Z,15.90
2018-03-23T09:40:52.435Z,18.60
2018-03-23T09:43:20.779Z,20.03
2018-03-23T09:45:49.975Z,23.37
2018-03-23T09:48:18.182Z,17.80
2018-03-23T09:50:46.676Z,13.23
2018-03-23T09:53:15.015Z,15.60
2018-03-23T09:55:44.120Z,20.43
2018-03-23T09:58:13.066Z,11.30
2018-03-23T10:00:42.294Z,12.07
2018-03-23T10:03:11.441Z,17.60
2018-03-23T10:05:39.772Z,9.20
2018-03-23T10:08:08.127Z,20.60
2018-03-23T10:10:36.488Z,17.43
2018-03-23T10:13:04.839Z,14.40
2018-03-23T10:15:33.211Z,16.43
2018-03-23T10:18:01.556Z,14.00
2018-03-23T10:20:29.919Z,17.60
2018-03-23T10:22:58.267Z,17.77
2018-03-23T10:25:26.692Z,11.67
2018-03-23T10:27:56.293Z,10.80
2018-03-23T10:30:24.665Z,8.40
2018-03-23T10:32:53.014Z,17.27
2018-03-23T10:35:21.379Z,17.30
2018-03-23T10:37:49.727Z,16.00
2018-03-23T10:40:18.089Z,15.23
2018-03-23T10:42:46.617Z,8.67
2018-03-23T10:45:14.967Z,5.93
2018-03-23T10:47:44.339Z,8.07
2018-03-23T10:50:13.824Z,13.83
2018-03-23T10:52:42.229Z,10.00
2018-03-23T10:55:12.649Z,9.90
2018-03-23T10:57:41.135Z,5.73
2018-03-23T11:00:10.259Z,12.13
2018-03-23T11:02:39.366Z,11.23
2018-03-23T11:05:07.731Z,11.20
2018-03-23T11:07:36.826Z,12.93
2018-03-23T11:10:05.683Z,10.80
2018-03-23T11:12:34.020Z,11.40
2018-03-23T11:15:02.376Z,15.80
2018-03-23T11:17:32.808Z,10.80
2018-03-23T11:20:01.179Z,8.47
2018-03-23T11:22:30.665Z,5.10
2018-03-23T11:24:59.791Z,10.43
2018-03-23T11:27:28.152Z,5.30
2018-03-23T11:29:57.259Z,8.73
2018-03-23T11:32:25.624Z,7.47
2018-03-23T11:34:54.736Z,9.70
2018-03-23T11:37:23.859Z,7.30
2018-03-23T11:39:52.234Z,10.43
2018-03-23T11:42:20.679Z,8.17
2018-03-23T11:44:49.054Z,4.60
2018-03-23T11:47:17.557Z,8.33
2018-03-23T11:49:45.721Z,7.43
2018-03-23T11:52:14.170Z,6.00
2018-03-23T11:54:43.320Z,2.70
2018-03-23T11:57:11.781Z,5.20
2018-03-23T11:59:40.187Z,9.23
2018-03-23T12:02:09.674Z,9.07
2018-03-23T12:04:39.037Z,9.43
2018-03-23T12:07:08.155Z,6.73
2018-03-23T12:09:36.496Z,2.73
2018-03-23T12:12:04.851Z,8.63
2018-03-23T12:14:32.869Z,7.33
2018-03-23T12:17:01.238Z,4.57
2018-03-23T12:19:30.339Z,6.37
2018-03-23T12:21:58.695Z,6.90
2018-03-23T12:24:27.127Z,7.00
2018-03-23T12:26:55.539Z,4.73
2018-03-23T12:29:23.924Z,15.40
2018-03-23T12:31:52.294Z,8.50
2018-03-23T12:34:20.665Z,7.63
2018-03-23T12:36:49.007Z,3.70
2018-03-23T12:39:17.359Z,10.70
2018-03-23T12:41:46.587Z,9.50
2018-03-23T12:44:14.938Z,13.17
2018-03-23T12:46:44.122Z,14.70
2018-03-23T12:49:13.257Z,11.17
2018-03-23T12:51:41.614Z,13.33
2018-03-23T12:54:10.732Z,15.30
2018-03-23T12:56:39.059Z,16.10
2018-03-23T12:59:07.403Z,8.47
2018-03-23T13:01:35.748Z,16.90
2018-03-23T13:04:03.832Z,10.60
2018-03-23T13:06:32.180Z,20.93
2018-03-23T13:09:01.291Z,15.23
2018-03-23T13:11:29.631Z,15.63
2018-03-23T13:13:58.000Z,12.30
2018-03-23T13:16:26.363Z,19.53
2018-03-23T13:18:54.717Z,14.27
2018-03-23T13:21:23.071Z,18.67
2018-03-23T13:23:51.409Z,24.57
2018-03-23T13:26:19.749Z,14.57
2018-03-23T13:28:48.108Z,11.33
2018-03-23T13:31:16.454Z,24.37
2018-03-23T13:33:44.795Z,19.90
2018-03-23T13:36:12.813Z,17.30
2018-03-23T13:38:41.943Z,20.20
2018-03-23T13:41:10.277Z,12.40
2018-03-23T13:43:38.646Z,21.60
2018-03-23T13:46:06.996Z,8.53
2018-03-23T13:48:35.364Z,8.80
2018-03-23T13:51:03.759Z,15.93
2018-03-23T13:53:32.134Z,17.97
2018-03-23T13:56:00.686Z,12.17
2018-03-23T13:58:34.483Z,9.00
2018-03-23T14:01:02.831Z,9.10
2018-03-23T14:03:31.171Z,12.07
2018-03-23T14:05:59.635Z,13.20
2018-03-23T14:08:27.783Z,8.93
2018-03-23T14:10:56.141Z,17.37
2018-03-23T14:13:24.475Z,13.77
2018-03-23T14:15:52.647Z,10.47
2018-03-23T14:18:20.976Z,6.10
2018-03-23T14:20:50.087Z,11.77
2018-03-23T14:23:18.461Z,10.73
2018-03-23T14:25:47.013Z,28.07
2018-03-23T14:28:15.364Z,16.80
2018-03-23T14:30:43.707Z,7.37
2018-03-23T14:33:12.053Z,10.50
2018-03-23T14:35:40.422Z,8.83
2018-03-23T14:38:08.765Z,8.40
2018-03-23T14:40:37.101Z,8.10
2018-03-23T14:43:06.221Z,17.37
2018-03-23T14:45:34.559Z,7.63
2018-03-23T14:48:03.672Z,7.80
2018-03-23T14:50:32.805Z,13.27
2018-03-23T14:53:01.196Z,5.73
2018-03-23T14:55:29.751Z,14.40
2018-03-23T14:57:58.092Z,11.93
2018-03-23T15:00:27.231Z,12.80
2018-03-23T15:02:55.571Z,12.13
2018-03-23T15:05:24.735Z,9.03
2018-03-23T15:07:53.219Z,8.37
2018-03-23T15:10:21.627Z,15.77
2018-03-23T15:12:50.723Z,5.00
2018-03-23T15:15:19.860Z,9.87
2018-03-23T15:17:48.206Z,10.63
2018-03-23T15:20:17.312Z,10.03
2018-03-23T15:22:46.501Z,10.77
2018-03-23T15:25:14.843Z,15.60
2018-03-23T15:27:43.296Z,9.60
2018-03-23T15:30:11.352Z,8.00
2018-03-23T15:32:41.030Z,10.60
2018-03-23T15:35:10.135Z,12.60
2018-03-23T15:37:38.485Z,9.07
2018-03-23T15:40:06.825Z,9.73
2018-03-23T15:42:35.013Z,13.10
2018-03-23T15:45:03.354Z,12.17
2018-03-23T15:47:31.711Z,8.53
2018-03-23T15:50:00.811Z,10.30
2018-03-23T15:52:29.194Z,10.20
2018-03-23T15:54:57.520Z,7.40
2018-03-23T15:57:25.875Z,10.00
2018-03-23T15:59:54.375Z,9.53
2018-03-23T16:02:22.737Z,6.10
2018-03-23T16:04:52.219Z,12.93
2018-03-23T16:07:20.591Z,10.87
2018-03-23T16:09:48.947Z,11.87
2018-03-23T16:12:18.048Z,3.10
2018-03-23T16:14:47.174Z,12.23
2018-03-23T16:17:15.555Z,13.07
2018-03-23T16:19:43.898Z,10.17
2018-03-23T16:22:13.040Z,9.20
2018-03-23T16:24:41.422Z,8.53
2018-03-23T16:27:09.784Z,13.53
2018-03-23T16:29:38.123Z,9.53
2018-03-23T16:32:07.256Z,7.50
2018-03-23T16:34:35.600Z,9.47
2018-03-23T16:37:04.384Z,7.00
2018-03-23T16:39:33.495Z,8.67
2018-03-23T16:42:01.860Z,14.93
2018-03-23T16:44:31.340Z,10.60
2018-03-23T16:46:59.910Z,9.00
2018-03-23T16:49:28.260Z,7.27
2018-03-23T16:51:56.836Z,10.40
2018-03-23T16:54:25.927Z,8.30
2018-03-23T16:56:54.307Z,8.47
2018-03-23T16:59:22.644Z,6.50
2018-03-23T17:01:51.748Z,8.17
2018-03-23T17:04:20.868Z,12.77
2018-03-23T17:06:49.268Z,12.57
2018-03-23T17:09:17.768Z,8.83
2018-03-23T17:11:47.284Z,5.57
2018-03-23T17:14:16.478Z,8.23
2018-03-23T17:16:44.924Z,15.07
2018-03-23T17:19:13.288Z,9.77
2018-03-23T17:21:41.631Z,7.63
2018-03-23T17:24:09.996Z,11.30
2018-03-23T17:26:38.329Z,11.77
2018-03-23T17:29:06.699Z,12.30
2018-03-23T17:31:34.951Z,5.80
2018-03-23T17:34:03.769Z,9.73
2018-03-23T17:36:32.103Z,6.47
2018-03-23T17:39:00.458Z,4.20
2018-03-23T17:41:28.796Z,11.43
2018-03-23T17:43:57.143Z,9.50
2018-03-23T17:46:26.239Z,4.93
2018-03-23T17:48:55.406Z,7.03
2018-03-23T17:51:23.916Z,14.10
2018-03-23T17:53:53.063Z,5.30
2018-03-23T17:56:21.391Z,4.10
2018-03-23T17:58:50.530Z,13.13
2018-03-23T18:01:18.916Z,10.30
2018-03-23T18:03:47.335Z,8.10
2018-03-23T18:06:15.716Z,9.57
2018-03-23T18:08:44.863Z,5.77
2018-03-23T18:11:13.204Z,5.47
2018-03-23T18:13:42.320Z,4.13
2018-03-23T18:16:11.823Z,6.37
2018-03-23T18:18:41.177Z,7.03
2018-03-23T18:21:10.667Z,7.50
2018-03-23T18:23:38.819Z,5.60
2018-03-23T18:26:07.214Z,5.53
2018-03-23T18:28:35.775Z,11.17
2018-03-23T18:31:03.949Z,5.90
2018-03-23T18:33:32.314Z,6.60
2018-03-23T18:36:00.660Z,11.33
2018-03-23T18:38:29.933Z,5.30
2018-03-23T18:40:58.297Z,7.50
2018-03-23T18:43:26.648Z,6.93
2018-03-23T18:45:54.986Z,3.50
2018-03-23T18:48:24.120Z,9.13
2018-03-23T18:50:53.402Z,9.80
2018-03-23T18:53:22.525Z,5.23
2018-03-23T18:55:50.872Z,4.27
2018-03-23T18:58:20.340Z,9.63
2018-03-23T19:00:48.707Z,3.27
2018-03-23T19:03:17.115Z,10.80
2018-03-23T19:05:45.472Z,5.77
2018-03-23T19:08:13.949Z,12.47
2018-03-23T19:10:43.204Z,13.13
2018-03-23T19:13:12.382Z,14.30
2018-03-23T19:15:41.555Z,12.47
2018-03-23T19:18:10.061Z,10.17
2018-03-23T19:20:38.424Z,8.03
2018-03-23T19:23:07.542Z,7.43
2018-03-23T19:25:36.717Z,13.30
2018-03-23T19:28:05.814Z,11.30
2018-03-23T19:30:34.958Z,14.00
2018-03-23T19:33:03.361Z,7.57
2018-03-23T19:35:33.231Z,13.10
2018-03-23T19:38:01.609Z,11.50
2018-03-23T19:40:29.950Z,5.77
2018-03-23T19:42:58.314Z,8.83
2018-03-23T19:45:26.697Z,15.27
2018-03-23T19:47:55.041Z,9.70
2018-03-23T19:50:23.375Z,13.93
2018-03-23T19:52:52.539Z,6.93
2018-03-23T19:55:20.923Z,14.87
2018-03-23T19:57:49.303Z,6.93
2018-03-23T20:00:17.652Z,6.13
2018-03-23T20:02:46.018Z,12.83
2018-03-23T20:05:15.136Z,8.00
2018-03-23T20:07:43.488Z,12.13
2018-03-23T20:10:11.849Z,11.30
2018-03-23T20:12:40.199Z,8.30
2018-03-23T20:15:08.759Z,10.30
2018-03-23T20:17:42.693Z,13.50
2018-03-23T20:20:17.400Z,8.90
2018-03-23T20:22:45.766Z,11.43
2018-03-23T20:25:14.298Z,8.50
2018-03-23T20:27:48.959Z,15.67
2018-03-23T20:30:17.315Z,13.47
2018-03-23T20:32:45.693Z,16.30
2018-03-23T20:35:14.055Z,17.33
2018-03-23T20:37:43.020Z,13.50
2018-03-23T20:40:11.561Z,8.57
2018-03-23T20:42:39.919Z,11.57
2018-03-23T20:45:08.295Z,13.07
2018-03-23T20:47:36.711Z,11.20
2018-03-23T20:50:05.183Z,13.10
2018-03-23T20:52:33.559Z,14.23
2018-03-23T20:55:02.064Z,12.50
2018-03-23T20:57:30.452Z,15.93
2018-03-23T20:59:58.852Z,14.70
2018-03-23T21:02:28.024Z,11.93
2018-03-23T21:04:56.403Z,13.60
2018-03-23T21:07:24.799Z,8.33
2018-03-23T21:09:53.956Z,5.00
2018-03-23T21:12:22.398Z,11.83
2018-03-23T21:14:50.805Z,14.60
2018-03-23T21:17:19.177Z,7.87
2018-03-23T21:19:51.762Z,8.97
2018-03-23T21:22:20.191Z,14.27
2018-03-23T21:24:49.321Z,2.03
2018-03-23T21:27:17.736Z,13.90
2018-03-23T21:29:46.100Z,9.90
2018-03-23T21:32:14.485Z,9.30
2018-03-23T21:34:42.824Z,13.13
2018-03-23T21:37:11.199Z,8.80
2018-03-23T21:39:39.548Z,11.17
2018-03-23T21:42:08.003Z,10.93
2018-03-23T21:44:36.387Z,10.20
2018-03-23T21:47:06.615Z,8.40
2018-03-23T21:49:35.017Z,2.27
2018-03-23T21:52:03.860Z,9.33
2018-03-23T21:54:32.278Z,11.03
2018-03-23T21:57:00.671Z,13.60
2018-03-23T21:59:33.074Z,6.53
2018-03-23T22:02:01.469Z,8.10
2018-03-23T22:04:29.836Z,11.70
2018-03-23T22:07:00.840Z,11.37
2018-03-23T22:09:29.310Z,14.67
2018-03-23T22:11:59.403Z,15.47
2018-03-23T22:14:27.963Z,12.63
2018-03-23T22:16:56.343Z,15.37
2018-03-23T22:19:24.731Z,9.67
2018-03-23T22:21:54.039Z,10.47
2018-03-23T22:24:22.307Z,11.90
2018-03-23T22:26:50.804Z,10.93
2018-03-23T22:29:19.184Z,10.87
2018-03-23T22:31:47.561Z,12.47
2018-03-23T22:34:15.974Z,11.90
2018-03-23T22:36:45.259Z,12.03
2018-03-23T22:39:16.736Z,13.87
2018-03-23T22:41:46.184Z,10.53
2018-03-23T22:44:16.330Z,19.23
2018-03-23T22:46:44.708Z,13.97
2018-03-23T22:49:13.067Z,12.97
2018-03-23T22:51:41.450Z,15.40
2018-03-23T22:54:09.603Z,13.93
2018-03-23T22:56:37.972Z,14.47
2018-03-23T22:59:06.457Z,12.63
2018-03-23T23:01:34.814Z,12.70
2018-03-23T23:04:04.253Z,13.70
2018-03-23T23:06:32.651Z,12.40
2018-03-23T23:09:01.763Z,11.60
2018-03-23T23:11:30.908Z,11.27
2018-03-23T23:13:59.238Z,14.03
2018-03-23T23:16:28.348Z,15.13
2018-03-23T23:18:56.911Z,12.03
2018-03-23T23:21:26.019Z,15.83
2018-03-23T23:23:55.139Z,10.77
2018-03-23T23:26:23.538Z,16.33
2018-03-23T23:28:51.967Z,10.83
2018-03-23T23:31:21.078Z,12.70
2018-03-23T23:33:49.442Z,14.70
2018-03-23T23:36:18.543Z,13.53
2018-03-23T23:38:46.900Z,13.90
2018-03-23T23:41:16.020Z,11.40
2018-03-23T23:43:44.361Z,12.40
2018-03-23T23:46:12.718Z,14.90
2018-03-23T23:48:41.815Z,11.30
2018-03-23T23:51:10.173Z,11.30
2018-03-23T23:53:38.511Z,13.33
2018-03-23T23:56:07.630Z,13.23
2018-03-23T23:58:35.971Z,12.50
